createdAt,value
2018-05-17T00:02:27.795Z,10.05
2018-05-17T00:05:37.623Z,10.80
2018-05-17T00:08:47.380Z,8.85
2018-05-17T00:11:57.948Z,10.95
2018-05-17T00:15:08.247Z,11.55
2018-05-17T00:18:18.998Z,10.00
2018-05-17T00:21:28.909Z,11.23
2018-05-17T00:24:38.673Z,10.85
2018-05-17T00:27:48.969Z,13.80
2018-05-17T00:30:58.906Z,13.35
2018-05-17T00:34:09.777Z,14.43
2018-05-17T00:37:20.249Z,11.45
2018-05-17T00:40:30.141Z,12.35
2018-05-17T00:43:40.769Z,15.27
2018-05-17T00:46:50.935Z,14.00
2018-05-17T00:50:01.030Z,10.63
2018-05-17T00:53:22.310Z,10.98
2018-05-17T00:56:33.200Z,13.45
2018-05-17T00:59:43.154Z,13.80
2018-05-17T01:02:53.907Z,14.23
2018-05-17T01:06:04.098Z,14.25
2018-05-17T01:09:14.808Z,13.35
2018-05-17T01:12:24.590Z,11.80
2018-05-17T01:15:34.500Z,13.40
2018-05-17T01:18:44.585Z,13.68
2018-05-17T01:21:54.589Z,12.55
2018-05-17T01:25:04.312Z,15.57
2018-05-17T01:28:13.916Z,13.52
2018-05-17T01:31:24.035Z,15.40
2018-05-17T01:34:34.871Z,15.70
2018-05-17T01:37:56.589Z,13.25
2018-05-17T01:41:07.093Z,16.27
2018-05-17T01:44:17.354Z,15.02
2018-05-17T01:47:28.071Z,18.73
2018-05-17T01:50:38.805Z,14.18
2018-05-17T01:53:48.828Z,12.88
2018-05-17T01:56:59.973Z,14.57
2018-05-17T02:00:10.095Z,16.50
2018-05-17T02:03:20.094Z,16.75
2018-05-17T02:06:29.856Z,14.98
2018-05-17T02:09:40.639Z,16.77
2018-05-17T02:12:50.931Z,13.88
2018-05-17T02:16:01.608Z,14.57
2018-05-17T02:19:11.431Z,13.55
2018-05-17T02:22:22.947Z,16.65
2018-05-17T02:25:33.209Z,11.93
2018-05-17T02:28:43.863Z,18.23
2018-05-17T02:31:54.347Z,15.23
2018-05-17T02:35:03.885Z,19.70
2018-05-17T02:38:14.109Z,13.98
2018-05-17T02:41:23.889Z,18.87
2018-05-17T02:44:34.792Z,15.73
2018-05-17T02:47:44.837Z,14.30
2018-05-17T02:50:55.072Z,16.45
2018-05-17T02:54:05.619Z,15.75
2018-05-17T02:57:15.993Z,20.17
2018-05-17T03:00:25.959Z,16.90
2018-05-17T03:03:35.777Z,18.67
2018-05-17T03:06:45.533Z,17.55
2018-05-17T03:09:55.321Z,17.62
2018-05-17T03:13:05.164Z,16.15
2018-05-17T03:16:15.592Z,20.67
2018-05-17T03:19:25.722Z,19.65
2018-05-17T03:22:36.208Z,19.75
2018-05-17T03:25:46.168Z,20.77
2018-05-17T03:28:56.997Z,23.27
2018-05-17T03:32:07.383Z,23.60
2018-05-17T03:35:17.426Z,23.52
2018-05-17T03:38:28.952Z,25.77
2018-05-17T03:41:39.294Z,23.58
2018-05-17T03:44:49.422Z,21.60
2018-05-17T03:48:00.110Z,27.55
2018-05-17T03:51:10.673Z,34.30
2018-05-17T03:54:20.661Z,25.52
2018-05-17T03:57:30.880Z,33.83
2018-05-17T04:00:52.957Z,29.20
2018-05-17T04:04:14.614Z,36.63
2018-05-17T04:07:24.548Z,38.80
2018-05-17T04:10:35.518Z,38.33
2018-05-17T04:13:47.003Z,33.42
2018-05-17T04:16:57.683Z,35.58
2018-05-17T04:20:07.636Z,43.92
2018-05-17T04:23:17.701Z,39.65
2018-05-17T04:26:27.452Z,37.05
2018-05-17T04:29:37.369Z,43.03
2018-05-17T04:32:47.928Z,38.50
2018-05-17T04:35:58.063Z,37.53
2018-05-17T04:39:08.061Z,33.88
2018-05-17T04:42:18.549Z,40.38
2018-05-17T04:45:28.560Z,35.85
2018-05-17T04:48:38.402Z,37.03
2018-05-17T04:51:48.180Z,38.20
2018-05-17T04:54:58.813Z,44.38
2018-05-17T04:58:09.229Z,41.90
2018-05-17T05:01:20.336Z,44.25
2018-05-17T05:04:30.690Z,40.70
2018-05-17T05:07:41.742Z,37.33
2018-05-17T05:10:52.066Z,35.83
2018-05-17T05:14:01.796Z,40.17
2018-05-17T05:17:11.865Z,24.58
2018-05-17T05:20:21.792Z,31.77
2018-05-17T05:23:31.686Z,43.80
2018-05-17T05:26:42.398Z,27.40
2018-05-17T05:29:52.609Z,47.13
2018-05-17T05:33:04.074Z,43.78
2018-05-17T05:36:14.201Z,42.13
2018-05-17T05:39:24.113Z,34.55
2018-05-17T05:42:34.793Z,33.13
2018-05-17T05:45:44.529Z,33.40
2018-05-17T05:48:54.698Z,38.67
2018-05-17T05:52:05.885Z,41.78
2018-05-17T05:55:16.542Z,50.63
2018-05-17T05:58:27.692Z,46.08
2018-05-17T06:01:38.257Z,44.30
2018-05-17T06:04:48.072Z,47.08
2018-05-17T06:07:57.954Z,50.33
2018-05-17T06:11:07.898Z,42.70
2018-05-17T06:14:17.995Z,21.55
2018-05-17T06:17:28.044Z,25.95
2018-05-17T06:20:37.985Z,38.50
2018-05-17T06:23:47.809Z,32.78
2018-05-17T06:26:58.863Z,29.52
2018-05-17T06:30:09.694Z,36.58
2018-05-17T06:33:20.232Z,36.22
2018-05-17T06:36:30.237Z,30.73
2018-05-17T06:39:40.012Z,51.78
2018-05-17T06:42:49.928Z,39.80
2018-05-17T06:45:59.840Z,42.60
2018-05-17T06:49:10.381Z,41.63
2018-05-17T06:52:20.603Z,25.62
2018-05-17T06:55:31.279Z,39.22
2018-05-17T06:58:42.490Z,45.88
2018-05-17T07:01:53.802Z,44.65
2018-05-17T07:05:03.972Z,27.33
2018-05-17T07:08:14.697Z,36.90
2018-05-17T07:11:25.366Z,30.83
2018-05-17T07:14:35.653Z,31.55
2018-05-17T07:17:45.606Z,40.30
2018-05-17T07:20:56.969Z,33.65
2018-05-17T07:24:06.847Z,37.47
2018-05-17T07:27:17.666Z,38.05
2018-05-17T07:30:27.556Z,40.40
2018-05-17T07:33:38.380Z,39.15
2018-05-17T07:36:48.575Z,39.75
2018-05-17T07:39:58.891Z,33.72
2018-05-17T07:43:09.338Z,33.00
2018-05-17T07:46:19.551Z,34.83
2018-05-17T07:49:29.888Z,28.77
2018-05-17T07:52:39.739Z,39.40
2018-05-17T07:55:50.425Z,32.63
2018-05-17T07:59:00.725Z,34.75
2018-05-17T08:02:12.000Z,40.28
2018-05-17T08:05:22.096Z,35.33
2018-05-17T08:08:34.041Z,40.88
2018-05-17T08:11:51.321Z,32.35
2018-05-17T08:15:01.839Z,34.83
2018-05-17T08:18:12.072Z,33.97
2018-05-17T08:21:22.801Z,35.45
2018-05-17T08:24:32.803Z,37.35
2018-05-17T08:27:42.789Z,32.25
2018-05-17T08:30:52.754Z,43.55
2018-05-17T08:34:02.632Z,38.00
2018-05-17T08:37:12.677Z,37.88
2018-05-17T08:40:23.465Z,29.30
2018-05-17T08:43:34.208Z,37.45
2018-05-17T08:46:44.331Z,40.63
2018-05-17T08:49:54.411Z,26.15
2018-05-17T08:53:04.258Z,26.40
2018-05-17T08:56:14.196Z,37.35
2018-05-17T08:59:24.775Z,35.22
2018-05-17T09:02:34.540Z,43.65
2018-05-17T09:05:44.868Z,35.53
2018-05-17T09:08:54.725Z,28.15
2018-05-17T09:12:04.671Z,34.40
2018-05-17T09:15:14.629Z,44.78
2018-05-17T09:18:24.725Z,36.03
2018-05-17T09:21:34.747Z,37.20
2018-05-17T09:24:44.532Z,34.35
2018-05-17T09:27:55.266Z,30.95
2018-05-17T09:31:05.255Z,33.90
2018-05-17T09:34:15.133Z,33.80
2018-05-17T09:37:24.940Z,40.20
2018-05-17T09:40:35.742Z,36.35
2018-05-17T09:43:46.048Z,26.20
2018-05-17T09:46:56.049Z,28.05
2018-05-17T09:50:06.985Z,28.20
2018-05-17T09:53:16.763Z,21.73
2018-05-17T09:56:27.399Z,21.62
2018-05-17T09:59:38.002Z,24.77
2018-05-17T10:02:48.754Z,24.45
2018-05-17T10:05:58.940Z,20.23
2018-05-17T10:09:09.257Z,27.30
2018-05-17T10:12:19.490Z,24.10
2018-05-17T10:15:30.750Z,27.35
2018-05-17T10:18:40.750Z,29.45
2018-05-17T10:21:50.611Z,25.30
2018-05-17T10:25:01.419Z,29.92
2018-05-17T10:28:11.276Z,21.08
2018-05-17T10:31:21.920Z,28.40
2018-05-17T10:34:31.809Z,25.88
2018-05-17T10:37:41.811Z,16.37
2018-05-17T10:40:52.604Z,29.45
2018-05-17T10:44:02.615Z,30.70
2018-05-17T10:47:12.624Z,24.08
2018-05-17T10:50:22.452Z,27.73
2018-05-17T10:53:32.485Z,32.72
2018-05-17T10:56:42.405Z,24.90
2018-05-17T10:59:52.800Z,28.80
2018-05-17T11:03:02.762Z,24.58
2018-05-17T11:06:13.683Z,26.12
2018-05-17T11:09:24.327Z,25.50
2018-05-17T11:12:34.892Z,23.50
2018-05-17T11:15:45.607Z,23.70
2018-05-17T11:18:56.272Z,26.05
2018-05-17T11:22:06.949Z,26.45
2018-05-17T11:25:16.947Z,18.87
2018-05-17T11:28:27.153Z,20.73
2018-05-17T11:31:36.977Z,26.98
2018-05-17T11:34:46.744Z,22.73
2018-05-17T11:37:56.725Z,26.08
2018-05-17T11:41:06.660Z,22.75
2018-05-17T11:44:17.457Z,14.30
2018-05-17T11:47:27.213Z,25.83
2018-05-17T11:50:37.616Z,27.35
2018-05-17T11:53:47.632Z,23.42
2018-05-17T11:56:57.550Z,29.27
2018-05-17T12:00:07.737Z,25.23
2018-05-17T12:03:18.479Z,32.15
2018-05-17T12:06:28.305Z,22.13
2018-05-17T12:09:38.404Z,28.62
2018-05-17T12:12:48.116Z,28.80
2018-05-17T12:15:58.321Z,30.73
2018-05-17T12:19:08.351Z,29.30
2018-05-17T12:22:18.377Z,20.52
2018-05-17T12:25:28.527Z,30.27
2018-05-17T12:28:38.620Z,26.37
2018-05-17T12:31:48.589Z,27.13
2018-05-17T12:34:59.278Z,34.08
2018-05-17T12:38:09.379Z,28.00
2018-05-17T12:41:19.417Z,34.10
2018-05-17T12:44:29.222Z,32.50
2018-05-17T12:47:39.339Z,19.80
2018-05-17T12:50:50.101Z,26.23
2018-05-17T12:54:00.030Z,25.83
2018-05-17T12:57:09.855Z,32.78
2018-05-17T13:00:19.991Z,30.10
2018-05-17T13:03:31.168Z,27.10
2018-05-17T13:06:41.268Z,34.13
2018-05-17T13:09:52.745Z,34.47
2018-05-17T13:13:03.174Z,29.77
2018-05-17T13:16:13.900Z,30.90
2018-05-17T13:19:24.704Z,30.12
2018-05-17T13:22:35.728Z,28.45
2018-05-17T13:25:46.861Z,32.90
2018-05-17T13:28:56.923Z,30.75
2018-05-17T13:32:07.391Z,31.95
2018-05-17T13:35:17.425Z,35.85
2018-05-17T13:38:27.557Z,28.33
2018-05-17T13:41:38.507Z,32.20
2018-05-17T13:44:48.756Z,34.97
2018-05-17T13:47:58.765Z,37.17
2018-05-17T13:51:09.408Z,35.60
2018-05-17T13:54:19.269Z,29.95
2018-05-17T13:57:29.381Z,31.20
2018-05-17T14:00:40.240Z,34.08
2018-05-17T14:03:50.976Z,31.73
2018-05-17T14:07:01.821Z,26.75
2018-05-17T14:10:12.532Z,34.67
2018-05-17T14:13:22.570Z,26.60
2018-05-17T14:16:32.443Z,31.55
2018-05-17T14:19:42.327Z,32.00
2018-05-17T14:22:52.561Z,30.27
2018-05-17T14:26:02.813Z,24.15
2018-05-17T14:29:12.771Z,29.33
2018-05-17T14:32:22.809Z,27.90
2018-05-17T14:35:33.023Z,30.30
2018-05-17T14:38:44.233Z,24.17
2018-05-17T14:41:54.643Z,27.52
2018-05-17T14:45:04.386Z,27.90
2018-05-17T14:48:14.822Z,29.30
2018-05-17T14:51:24.641Z,28.23
2018-05-17T14:54:34.554Z,27.92
2018-05-17T14:57:44.549Z,25.45
2018-05-17T15:00:55.646Z,28.60
2018-05-17T15:04:05.606Z,18.15
2018-05-17T15:07:15.668Z,25.45
2018-05-17T15:10:25.561Z,19.55
2018-05-17T15:13:35.443Z,26.65
2018-05-17T15:16:45.486Z,24.20
2018-05-17T15:19:55.546Z,16.10
2018-05-17T15:23:05.537Z,22.05
2018-05-17T15:26:15.560Z,17.33
2018-05-17T15:29:25.441Z,23.70
2018-05-17T15:32:35.337Z,23.00
2018-05-17T15:35:45.274Z,20.90
2018-05-17T15:38:55.089Z,20.98
2018-05-17T15:42:05.150Z,19.65
2018-05-17T15:45:15.128Z,17.40
2018-05-17T15:48:25.432Z,21.50
2018-05-17T15:51:35.720Z,20.67
2018-05-17T15:54:45.673Z,17.83
2018-05-17T15:57:55.764Z,27.35
2018-05-17T16:01:05.931Z,18.83
2018-05-17T16:04:16.523Z,22.00
2018-05-17T16:07:26.537Z,22.30
2018-05-17T16:10:36.462Z,20.42
2018-05-17T16:13:47.111Z,24.17
2018-05-17T16:16:57.604Z,25.48
2018-05-17T16:20:07.728Z,21.50
2018-05-17T16:23:17.809Z,24.63
2018-05-17T16:26:30.715Z,21.30
2018-05-17T16:29:40.997Z,19.37
2018-05-17T16:32:51.023Z,24.83
2018-05-17T16:36:01.705Z,22.45
2018-05-17T16:39:12.005Z,24.48
2018-05-17T16:42:21.999Z,20.45
2018-05-17T16:45:31.821Z,22.27
2018-05-17T16:48:42.586Z,21.02
2018-05-17T16:51:52.674Z,24.08
2018-05-17T16:55:02.618Z,24.73
2018-05-17T16:58:12.604Z,22.13
2018-05-17T17:01:22.882Z,19.55
2018-05-17T17:04:33.546Z,19.10
2018-05-17T17:07:43.645Z,18.83
2018-05-17T17:10:56.089Z,19.58
2018-05-17T17:14:07.114Z,19.10
2018-05-17T17:17:25.228Z,18.02
2018-05-17T17:20:35.864Z,16.92
2018-05-17T17:23:46.592Z,15.70
2018-05-17T17:26:56.698Z,18.12
2018-05-17T17:30:10.090Z,19.10
2018-05-17T17:33:21.011Z,16.90
2018-05-17T17:36:30.879Z,19.42
2018-05-17T17:39:41.211Z,17.33
2018-05-17T17:42:51.896Z,19.27
2018-05-17T17:46:02.688Z,20.20
2018-05-17T17:49:13.092Z,15.80
2018-05-17T17:52:23.863Z,15.23
2018-05-17T17:55:34.140Z,17.17
2018-05-17T17:58:44.475Z,18.45
2018-05-17T18:01:54.752Z,19.23
2018-05-17T18:05:04.630Z,17.75
2018-05-17T18:08:15.669Z,21.17
2018-05-17T18:11:25.745Z,18.02
2018-05-17T18:14:35.657Z,19.10
2018-05-17T18:17:45.548Z,20.45
2018-05-17T18:20:55.692Z,15.60
2018-05-17T18:24:06.563Z,19.77
2018-05-17T18:27:16.937Z,20.80
2018-05-17T18:30:26.933Z,16.30
2018-05-17T18:33:37.179Z,15.93
2018-05-17T18:36:47.458Z,15.70
2018-05-17T18:39:57.447Z,16.75
2018-05-17T18:43:08.458Z,16.20
2018-05-17T18:46:18.442Z,14.25
2018-05-17T18:49:28.473Z,15.23
2018-05-17T18:52:38.200Z,17.17
2018-05-17T18:55:48.430Z,19.12
2018-05-17T18:58:59.289Z,22.00
2018-05-17T19:02:09.636Z,15.98
2018-05-17T19:05:20.015Z,15.30
2018-05-17T19:08:30.085Z,18.75
2018-05-17T19:11:39.712Z,14.87
2018-05-17T19:14:49.889Z,19.40
2018-05-17T19:17:59.916Z,19.30
2018-05-17T19:21:09.752Z,16.35
2018-05-17T19:24:19.714Z,14.30
2018-05-17T19:27:29.997Z,14.20
2018-05-17T19:30:40.506Z,16.77
2018-05-17T19:33:50.794Z,14.65
2018-05-17T19:37:00.694Z,14.27
2018-05-17T19:40:11.275Z,13.32
2018-05-17T19:43:21.851Z,14.90
2018-05-17T19:46:32.143Z,12.27
2018-05-17T19:49:42.659Z,14.95
2018-05-17T19:52:52.736Z,14.25
2018-05-17T19:56:03.636Z,14.10
2018-05-17T19:59:13.441Z,14.48
2018-05-17T20:02:24.388Z,12.10
2018-05-17T20:05:34.391Z,15.63
2018-05-17T20:08:44.253Z,12.60
2018-05-17T20:11:54.271Z,14.25
2018-05-17T20:15:03.930Z,14.20
2018-05-17T20:18:14.173Z,14.60
2018-05-17T20:21:24.495Z,16.35
2018-05-17T20:24:34.485Z,12.80
2018-05-17T20:27:44.614Z,14.75
2018-05-17T20:30:54.446Z,14.87
2018-05-17T20:34:04.231Z,14.77
2018-05-17T20:37:14.677Z,17.80
2018-05-17T20:40:25.080Z,13.35
2018-05-17T20:43:35.222Z,14.85
2018-05-17T20:46:46.788Z,14.90
2018-05-17T20:49:57.515Z,15.25
2018-05-17T20:53:08.630Z,12.63
2018-05-17T20:56:18.702Z,14.48
2018-05-17T20:59:29.275Z,14.60
2018-05-17T21:02:40.093Z,12.30
2018-05-17T21:05:51.594Z,15.43
2018-05-17T21:09:01.986Z,14.45
2018-05-17T21:12:12.768Z,12.27
2018-05-17T21:15:22.805Z,17.08
2018-05-17T21:18:32.725Z,11.75
2018-05-17T21:21:42.534Z,13.73
2018-05-17T21:24:52.364Z,12.80
2018-05-17T21:28:02.514Z,12.35
2018-05-17T21:31:12.242Z,14.45
2018-05-17T21:34:22.557Z,15.93
2018-05-17T21:37:32.287Z,16.12
2018-05-17T21:40:42.319Z,14.60
2018-05-17T21:43:52.932Z,14.30
2018-05-17T21:47:03.223Z,11.70
2018-05-17T21:50:13.127Z,12.15
2018-05-17T21:53:23.280Z,19.10
2018-05-17T21:56:33.322Z,13.45
2018-05-17T21:59:43.309Z,14.60
2018-05-17T22:02:53.720Z,12.13
2018-05-17T22:06:04.720Z,14.87
2018-05-17T22:09:14.898Z,14.55
2018-05-17T22:12:25.144Z,15.27
2018-05-17T22:15:35.883Z,12.98
2018-05-17T22:18:45.769Z,13.20
2018-05-17T22:21:55.661Z,13.40
2018-05-17T22:25:05.776Z,14.10
2018-05-17T22:28:15.744Z,11.75
2018-05-17T22:31:27.245Z,12.60
2018-05-17T22:34:37.290Z,13.20
2018-05-17T22:37:47.373Z,10.30
2018-05-17T22:40:57.341Z,13.35
2018-05-17T22:44:07.946Z,14.73
2018-05-17T22:47:18.022Z,15.57
2018-05-17T22:50:29.478Z,13.68
2018-05-17T22:53:39.987Z,12.93
2018-05-17T22:57:01.468Z,11.80
2018-05-17T23:00:16.992Z,15.88
2018-05-17T23:03:27.395Z,13.65
2018-05-17T23:06:38.453Z,14.57
2018-05-17T23:09:48.940Z,14.07
2018-05-17T23:12:59.172Z,15.57
2018-05-17T23:16:09.977Z,14.93
2018-05-17T23:19:20.251Z,15.52
2018-05-17T23:22:37.271Z,13.77
2018-05-17T23:25:47.197Z,15.48
2018-05-17T23:28:58.209Z,15.43
2018-05-17T23:32:08.156Z,16.73
2018-05-17T23:35:18.045Z,13.55
2018-05-17T23:38:28.474Z,14.13
2018-05-17T23:41:44.097Z,12.50
2018-05-17T23:44:54.421Z,14.50
2018-05-17T23:48:04.465Z,17.85
2018-05-17T23:51:15.377Z,17.17
2018-05-17T23:54:25.386Z,14.63
2018-05-17T23:57:35.429Z,14.48
